LEZL Información de aeropuertos

Información de pistas
Pista 09 Longitud 11024 ft Ancho 148 ft
Elevación 83 ft Umbral 0 ft Rumbo 90
Pista 27 Longitud 11024 ft Ancho 148 ft
Elevación 111 ft Umbral 0 ft Rumbo 270
Frecuencias
Tipo APP Nombre APP Frequencia 120 MHZ
Tipo ATIS Nombre ATIS Frequencia 118.175 MHZ
Tipo GND Nombre GND Frequencia 121.7 MHZ
Tipo TWR Nombre TWR Frequencia 118.1 MHZ
Radioayudas
Tipo NDB Nombre Sevilla Frequencia 420 KHZ
Tipo VOR-DME Nombre Sevilla Frequencia 113700 KHZ
Información meteorológica y NOTAM
ADDS - METARS form results

(1349 UTC 21 October 2021)
Data provider http://aviationweather.gov/metar/data/
 
METAR text: LEZL 211330Z 33004KT 250V050 CAVOK 26/08 Q1017 NOSIG
Conditions at: LEZL (SEVILLA (CIV/MIL, ES) observed 1330 UTC 21 October 2021
Temperature: 26.0°C (79°F)
Dewpoint: 8.0°C (46°F) [RH = 32%]
Pressure (altimeter): 30.03 inches Hg (1017.0 mb)
Winds: from the NNW (330 degrees) at 5 MPH (4 knots; 2.1 m/s)
Visibility: 6 or more miles (10+ km)
Ceiling: ceiling and visibility are OK
Clouds: unknown
Weather: no significant weather observed at this time

METAR text: LEZL 211300Z 30005KT 240V340 CAVOK 26/09 Q1018 NOSIG
Conditions at: LEZL (SEVILLA (CIV/MIL, ES) observed 1300 UTC 21 October 2021
Temperature: 26.0°C (79°F)
Dewpoint: 9.0°C (48°F) [RH = 34%]
Pressure (altimeter): 30.06 inches Hg (1018.0 mb)
Winds: from the WNW (300 degrees) at 6 MPH (5 knots; 2.6 m/s)
Visibility: 6 or more miles (10+ km)
Ceiling: ceiling and visibility are OK
Clouds: unknown
Weather: no significant weather observed at this time

Forecast for: LEZL (SEVILLA (CIV/MIL, ES)
Text: TAF LEZL 210800Z 2109/2209 31006KT CAVOK TX28/2115Z TN12/2206Z
Forecast period: 0900 UTC 21 October 2021 to 0900 UTC 22 October 2021
Forecast type: FROM: standard forecast or significant change
Winds: from the NW (310 degrees) at 7 MPH (6 knots; 3.1 m/s)
Visibility: 6 or more miles (10+ km)
Ceiling: unknown
Clouds: missing
Weather: no significant weather forecast for this period